M I D A S
Marine Information and Data Acquisition System
Tripno 295 of the Zeeleeuw from 2002-07-09 03:19:21 to 2002-07-09 13:30:00
Back to CruiseResearch ActivitiesStationsMapUnderway DataData graphs

EquipmentUnitsComment
TimeDGPSUTC
LatitudeDGPSDM.mWGS84
LongitudeDGPSDM.mWGS84
TemperatureSBE03/SBE38deg celciusITS90
ConductivitySBE21S/mITS90
SalinitySBE21 Practical Salinity Units
ChlorophylAChelsea fluorimeterg/lCalibrated in Aceton
Missing or incorrect values are displayed as -999
Sea surface data collected by the RV Zeeleeuw from 2002-07-09 03:19:21 to 2002-07-09 13:30:00
Time Latitude Longitude Temperature Conductivity Salinity ChlorophylA
2002-07-09 03:20:23 51°14.397 2°54.991 -999 -999 -999  
2002-07-09 03:21:24 51°14.553 2°54.82 -999 -999 -999  
2002-07-09 03:22:24 51°14.74 2°54.676 -999 -999 -999  
2002-07-09 03:23:25 51°14.94 2°54.51 -999 -999 -999  
2002-07-09 03:24:24 51°15.133 2°54.353 -999 -999 -999  
2002-07-09 03:25:24 51°15.338 2°54.188 -999 -999 -999  
2002-07-09 03:26:24 51°15.548 2°54.014 -999 -999 -999  
2002-07-09 03:27:24 51°15.762 2°53.843 -999 -999 -999  
2002-07-09 03:28:24 51°15.972 2°53.658 -999 -999 -999  
2002-07-09 03:29:24 51°16.175 2°53.451 -999 -999 -999  
2002-07-09 03:30:24 51°16.38 2°53.248 -999 -999 -999  
2002-07-09 03:31:24 51°16.583 2°53.046 -999 -999 -999  
2002-07-09 03:32:24 51°16.786 2°52.846 -999 -999 -999  
2002-07-09 03:33:24 51°16.987 2°52.653 -999 -999 -999  
2002-07-09 03:34:25 51°17.199 2°52.47 -999 -999 -999  
2002-07-09 03:35:25 51°17.414 2°52.3 -999 -999 -999  
2002-07-09 03:36:25 51°17.632 2°52.14 -999 -999 -999  
2002-07-09 03:37:25 51°17.852 2°51.994 -999 -999 -999  
2002-07-09 03:38:24 51°18.073 2°51.865 -999 -999 -999  
2002-07-09 03:39:25 51°18.304 2°51.735 -999 -999 -999  
2002-07-09 03:40:24 51°18.528 2°51.613 -999 -999 -999  
2002-07-09 03:41:25 51°18.762 2°51.502 -999 -999 -999  
2002-07-09 03:42:24 51°18.987 2°51.391 -999 -999 -999  
2002-07-09 03:43:24 51°19.217 2°51.281 -999 -999 -999  
2002-07-09 03:44:24 51°19.45 2°51.171 -999 -999 -999  
2002-07-09 03:45:25 51°19.684 2°51.058 -999 -999 -999  
2002-07-09 03:46:24 51°19.912 2°50.945 -999 -999 -999  
2002-07-09 03:47:24 51°20.143 2°50.829 -999 -999 -999  
2002-07-09 03:48:24 51°20.377 2°50.714 -999 -999 -999  
2002-07-09 03:49:25 51°20.61 2°50.597 -999 -999 -999  
2002-07-09 03:50:24 51°20.836 2°50.484 -999 -999 -999  
2002-07-09 03:51:24 51°21.066 2°50.372 -999 -999 -999  
2002-07-09 03:52:24 51°21.297 2°50.264 -999 -999 -999  
2002-07-09 03:53:24 51°21.528 2°50.154 -999 -999 -999  
2002-07-09 03:54:24 51°21.761 2°50.057 -999 -999 -999  
2002-07-09 03:55:24 51°21.994 2°49.959 -999 -999 -999  
2002-07-09 03:56:24 51°22.227 2°49.859 -999 -999 -999  
2002-07-09 03:57:24 51°22.461 2°49.758 -999 -999 -999  
2002-07-09 03:58:24 51°22.69 2°49.658 -999 -999 -999  
2002-07-09 03:59:24 51°22.921 2°49.559 -999 -999 -999  
2002-07-09 04:00:24 51°23.154 2°49.459 -999 -999 -999  
2002-07-09 04:01:24 51°23.385 2°49.358 -999 -999 -999  
2002-07-09 04:02:23 51°23.614 2°49.259 -999 -999 -999  
2002-07-09 04:03:23 51°23.845 2°49.158 -999 -999 -999  
2002-07-09 04:04:24 51°24.082 2°49.055 -999 -999 -999  
2002-07-09 04:05:24 51°24.314 2°48.952 -999 -999 -999  
2002-07-09 04:06:24 51°24.545 2°48.845 -999 -999 -999  
2002-07-09 04:07:23 51°24.773 2°48.741 -999 -999 -999  
2002-07-09 04:08:23 51°25.009 2°48.686 -999 -999 -999  
2002-07-09 04:09:24 51°25.25 2°48.645 -999 -999 -999  
2002-07-09 04:10:25 51°25.491 2°48.602 -999 -999 -999  
2002-07-09 04:11:25 51°25.711 2°48.562 -999 -999 -999  
2002-07-09 04:12:24 51°25.843 2°48.548 -999 -999 -999  
2002-07-09 04:13:23 51°25.93 2°48.562 -999 -999 -999  
2002-07-09 04:14:24 51°25.999 2°48.588 -999 -999 -999  
2002-07-09 04:15:23 51°26.052 2°48.616 -999 -999 -999  
2002-07-09 04:16:24 51°26.097 2°48.644 -999 -999 -999  
2002-07-09 04:17:23 51°26.136 2°48.672 -999 -999 -999  
2002-07-09 04:18:24 51°26.172 2°48.702 -999 -999 -999  
2002-07-09 04:19:25 51°26.205 2°48.732 -999 -999 -999  
2002-07-09 04:20:25 51°26.236 2°48.761 -999 -999 -999  
2002-07-09 04:21:24 51°26.261 2°48.784 -999 -999 -999  
2002-07-09 04:22:24 51°26.282 2°48.803 -999 -999 -999  
2002-07-09 04:23:23 51°26.299 2°48.817 -999 -999 -999  
2002-07-09 04:24:24 51°26.315 2°48.828 -999 -999 -999  
2002-07-09 04:25:23 51°26.328 2°48.838 -999 -999 -999  
2002-07-09 04:26:24 51°26.34 2°48.845 -999 -999 -999  
2002-07-09 04:27:23 51°26.35 2°48.85 -999 -999 -999  
2002-07-09 04:28:24 51°26.359 2°48.855 -999 -999 -999  
2002-07-09 04:29:25 51°26.367 2°48.859 -999 -999 -999  
2002-07-09 04:30:23 51°26.374 2°48.863 -999 -999 -999  
2002-07-09 04:31:23 51°26.382 2°48.873 -999 -999 -999  
2002-07-09 04:32:24 51°26.384 2°48.888 -999 -999 -999  
2002-07-09 04:33:24 51°26.378 2°48.902 -999 -999 -999  
2002-07-09 04:34:23 51°26.366 2°48.91 -999 -999 -999  
2002-07-09 04:35:24 51°26.348 2°48.908 -999 -999 -999  
2002-07-09 04:36:23 51°26.328 2°48.892 -999 -999 -999  
2002-07-09 04:37:24 51°26.306 2°48.865 -999 -999 -999  
2002-07-09 04:38:24 51°26.283 2°48.832 -999 -999 -999  
2002-07-09 04:39:24 51°26.259 2°48.796 -999 -999 -999  
2002-07-09 04:40:24 51°26.233 2°48.757 -999 -999 -999  
2002-07-09 04:41:24 51°26.208 2°48.718 -999 -999 -999  
2002-07-09 04:42:23 51°26.186 2°48.683 -999 -999 -999  
2002-07-09 04:43:24 51°26.165 2°48.648 -999 -999 -999  
2002-07-09 04:44:23 51°26.147 2°48.617 -999 -999 -999  
2002-07-09 04:45:24 51°26.13 2°48.585 -999 -999 -999  
2002-07-09 04:46:23 51°26.115 2°48.555 -999 -999 -999  
2002-07-09 04:47:24 51°26.096 2°48.522 -999 -999 -999  
2002-07-09 04:48:24 51°26.076 2°48.489 -999 -999 -999  
2002-07-09 04:49:24 51°26.055 2°48.454 -999 -999 -999  
2002-07-09 04:50:24 51°26.02 2°48.44 -999 -999 -999  
2002-07-09 04:51:24 51°25.997 2°48.476 -999 -999 -999  
2002-07-09 04:52:25 51°25.99 2°48.454 -999 -999 -999  
2002-07-09 04:53:25 51°25.986 2°48.442 -999 -999 -999  
2002-07-09 04:54:25 51°25.985 2°48.434 -999 -999 -999  
2002-07-09 04:55:25 51°25.991 2°48.43 -999 -999 -999  
2002-07-09 04:56:24 51°26 2°48.43 -999 -999 -999  
2002-07-09 04:57:25 51°26.007 2°48.44 -999 -999 -999  
2002-07-09 04:58:25 51°26.012 2°48.451 -999 -999 -999  
2002-07-09 04:59:24 51°26.02 2°48.458 -999 -999 -999  
2002-07-09 05:00:24 51°26.029 2°48.459 -999 -999 -999  
2002-07-09 05:01:25 51°26.037 2°48.455 -999 -999 -999  
2002-07-09 05:02:24 51°26.041 2°48.447 -999 -999 -999  
2002-07-09 05:03:24 51°26.041 2°48.435 -999 -999 -999  
2002-07-09 05:04:24 51°26.04 2°48.419 -999 -999 -999  
2002-07-09 05:05:24 51°26.038 2°48.401 -999 -999 -999  
2002-07-09 05:06:25 51°26.036 2°48.383 -999 -999 -999  
2002-07-09 05:07:24 51°26.032 2°48.381 -999 -999 -999  
2002-07-09 05:08:24 51°26.025 2°48.39 -999 -999 -999  
2002-07-09 05:09:25 51°26.016 2°48.407 -999 -999 -999  
2002-07-09 05:10:24 51°26.005 2°48.428 -999 -999 -999  
2002-07-09 05:11:24 51°25.999 2°48.452 -999 -999 -999  
2002-07-09 05:12:25 51°25.996 2°48.477 -999 -999 -999  
2002-07-09 05:13:24 51°25.995 2°48.496 -999 -999 -999  
2002-07-09 05:14:25 51°25.996 2°48.508 -999 -999 -999  
2002-07-09 05:15:24 51°25.998 2°48.514 -999 -999 -999  
2002-07-09 05:16:24 51°25.999 2°48.516 -999 -999 -999  
2002-07-09 05:17:24 51°25.999 2°48.514 -999 -999 -999  
2002-07-09 05:18:24 51°25.997 2°48.51 -999 -999 -999  
2002-07-09 05:19:24 51°25.995 2°48.503 -999 -999 -999  
2002-07-09 05:20:25 51°25.99 2°48.495 -999 -999 -999  
2002-07-09 05:21:25 51°25.986 2°48.486 -999 -999 -999  
2002-07-09 05:22:24 51°25.98 2°48.475 -999 -999 -999  
2002-07-09 05:23:24 51°25.974 2°48.464 -999 -999 -999  
2002-07-09 05:24:25 51°25.968 2°48.452 -999 -999 -999  
2002-07-09 05:25:24 51°25.961 2°48.44 -999 -999 -999  
2002-07-09 05:26:25 51°25.954 2°48.431 -999 -999 -999  
2002-07-09 05:27:24 51°25.948 2°48.426 -999 -999 -999  
2002-07-09 05:28:25 51°25.942 2°48.423 -999 -999 -999  
2002-07-09 05:29:24 51°25.939 2°48.422 -999 -999 -999  
2002-07-09 05:30:24 51°25.937 2°48.422 -999 -999 -999  
2002-07-09 05:31:25 51°25.94 2°48.423 -999 -999 -999  
2002-07-09 05:32:24 51°25.947 2°48.422 -999 -999 -999  
2002-07-09 05:33:24 51°25.958 2°48.42 -999 -999 -999  
2002-07-09 05:34:25 51°25.971 2°48.418 -999 -999 -999  
2002-07-09 05:35:24 51°25.985 2°48.419 -999 -999 -999  
2002-07-09 05:36:25 51°25.995 2°48.419 -999 -999 -999  
2002-07-09 05:49:33 51°27.433 2°48.184 -999 -999 -999  
2002-07-09 05:51:14 51°27.809 2°48.137 -999 -999 -999  
2002-07-09 05:52:18 51°28.048 2°48.109 -999 -999 -999  
2002-07-09 05:53:34 51°28.333 2°48.078 -999 -999 -999  
2002-07-09 05:54:33 51°28.553 2°48.056 -999 -999 -999  
2002-07-09 06:44:02 51°34.818 2°47.453 -999 -999 -999  
2002-07-09 06:45:02 51°34.808 2°47.453 -999 -999 -999  
2002-07-09 06:46:02 51°34.798 2°47.449 -999 -999 -999  
2002-07-09 06:47:01 51°34.79 2°47.448 -999 -999 -999  
2002-07-09 06:48:02 51°34.782 2°47.45 -999 -999 -999  
2002-07-09 06:49:02 51°34.779 2°47.45 -999 -999 -999  
2002-07-09 06:50:02 51°34.782 2°47.449 -999 -999 -999  
2002-07-09 06:51:02 51°34.787 2°47.449 -999 -999 -999  
2002-07-09 06:52:01 51°34.79 2°47.455 -999 -999 -999  
2002-07-09 06:53:02 51°34.793 2°47.463 -999 -999 -999  
2002-07-09 06:54:02 51°34.799 2°47.468 -999 -999 -999  
2002-07-09 06:55:02 51°34.808 2°47.465 -999 -999 -999  
2002-07-09 06:56:02 51°34.821 2°47.455 -999 -999 -999  
2002-07-09 06:57:02 51°34.836 2°47.435 -999 -999 -999  
2002-07-09 06:58:02 51°34.849 2°47.405 -999 -999 -999  
2002-07-09 06:59:02 51°34.86 2°47.393 -999 -999 -999  
2002-07-09 07:00:02 51°34.863 2°47.396 -999 -999 -999  
2002-07-09 07:01:02 51°34.856 2°47.405 -999 -999 -999  
2002-07-09 07:02:02 51°34.841 2°47.414 -999 -999 -999  
2002-07-09 07:03:02 51°34.822 2°47.424 -999 -999 -999  
2002-07-09 07:04:02 51°34.808 2°47.435 -999 -999 -999  
2002-07-09 07:05:02 51°34.802 2°47.445 -999 -999 -999  
2002-07-09 07:06:02 51°34.802 2°47.449 -999 -999 -999  
2002-07-09 07:07:02 51°34.808 2°47.445 -999 -999 -999  
2002-07-09 07:08:02 51°34.818 2°47.442 -999 -999 -999  
2002-07-09 07:09:02 51°34.829 2°47.446 -999 -999 -999  
2002-07-09 07:10:02 51°34.837 2°47.456 -999 -999 -999  
2002-07-09 07:11:02 51°34.841 2°47.464 -999 -999 -999  
2002-07-09 07:12:02 51°34.839 2°47.468 -999 -999 -999  
2002-07-09 07:13:02 51°34.833 2°47.467 -999 -999 -999  
2002-07-09 07:14:02 51°34.843 2°47.557 -999 -999 -999  
2002-07-09 07:15:02 51°34.752 2°47.847 -999 -999 -999  
2002-07-09 07:16:02 51°34.622 2°48.149 -999 -999 -999  
2002-07-09 07:17:02 51°34.488 2°48.448 -999 -999 -999  
2002-07-09 07:18:02 51°34.355 2°48.744 -999 -999 -999  
2002-07-09 07:19:02 51°34.226 2°49.045 -999 -999 -999  
2002-07-09 07:20:02 51°34.092 2°49.339 -999 -999 -999  
2002-07-09 07:21:02 51°33.961 2°49.631 -999 -999 -999  
2002-07-09 07:22:02 51°33.831 2°49.92 -999 -999 -999  
2002-07-09 07:23:02 51°33.703 2°50.209 -999 -999 -999  
2002-07-09 07:24:02 51°33.575 2°50.5 -999 -999 -999  
2002-07-09 07:25:02 51°33.449 2°50.793 -999 -999 -999  
2002-07-09 07:26:02 51°33.323 2°51.089 -999 -999 -999  
2002-07-09 07:27:02 51°33.196 2°51.385 -999 -999 -999  
2002-07-09 07:28:02 51°33.062 2°51.674 -999 -999 -999  
2002-07-09 07:29:02 51°32.917 2°51.954 -999 -999 -999  
2002-07-09 07:30:02 51°32.788 2°52.25 -999 -999 -999  
2002-07-09 07:31:02 51°32.661 2°52.548 -999 -999 -999  
2002-07-09 07:32:02 51°32.534 2°52.846 -999 -999 -999  
2002-07-09 07:33:02 51°32.402 2°53.142 -999 -999 -999  
2002-07-09 07:34:01 51°32.274 2°53.434 -999 -999 -999  
2002-07-09 07:35:02 51°32.144 2°53.74 -999 -999 -999  
2002-07-09 07:36:02 51°32.019 2°54.046 -999 -999 -999  
2002-07-09 07:37:02 51°31.89 2°54.348 -999 -999 -999  
2002-07-09 07:38:02 51°31.762 2°54.654 -999 -999 -999  
2002-07-09 07:39:02 51°31.634 2°54.958 -999 -999 -999  
2002-07-09 07:40:02 51°31.508 2°55.266 -999 -999 -999  
2002-07-09 07:41:02 51°31.382 2°55.577 -999 -999 -999  
2002-07-09 07:42:02 51°31.257 2°55.89 -999 -999 -999  
2002-07-09 07:43:02 51°31.133 2°56.202 -999 -999 -999